Time;durP1;ratioP1;P1;durP2;ratioP2;P2;SDS_P1;SDS_P2;PMS_P1;PMS_P2;Temp;Humidity;BMP_temperature;BMP_pressure;BME280_temperature;BME280_humidity;BME280_pressure;Samples;Min_cycle;Max_cycle;Signal;HPM_P1;HPM_P2
2022/05/11 00:00:36;;;;;;;7.35;6.85;;;;;;;19.66;69.71;98719.44;5016430;27;103260;-71
2022/05/11 00:03:05;;;;;;;7.13;6.63;;;;;;;19.75;68.79;98717.59;5016693;28;103268;-71
2022/05/11 00:05:35;;;;;;;6.68;6.07;;;;;;;19.74;68.71;98719.44;5017986;28;102600;-71
2022/05/11 00:08:03;;;;;;;6.90;6.50;;;;;;;19.70;68.70;98720.78;5017340;28;103213;-71
2022/05/11 00:10:31;;;;;;;6.68;6.28;;;;;;;19.71;68.26;98717.09;5015472;28;104407;-71
2022/05/11 00:12:59;;;;;;;9.57;8.68;;;;;;;19.14;70.46;98709.97;5016488;27;103231;-71
2022/05/11 00:15:29;;;;;;;8.38;7.78;;;;;;;19.10;70.74;98721.03;5015428;28;102701;-71
2022/05/11 00:17:58;;;;;;;9.75;9.05;;;;;;;18.57;73.43;98715.16;5015536;28;102910;-71
2022/05/11 00:20:27;;;;;;;7.90;7.25;;;;;;;18.87;72.13;98713.75;5016175;28;103272;-71
2022/05/11 00:22:56;;;;;;;8.55;7.85;;;;;;;18.69;73.29;98711.19;5017483;28;103276;-71
2022/05/11 00:25:25;;;;;;;8.18;7.47;;;;;;;18.80;71.37;98710.06;5015018;27;102595;-71
2022/05/11 00:27:54;;;;;;;9.00;8.40;;;;;;;18.27;74.22;98708.44;5015767;28;102945;-72
2022/05/11 00:30:23;;;;;;;9.88;9.07;;;;;;;18.28;74.08;98709.28;5013080;28;103428;-71
2022/05/11 00:32:53;;;;;;;9.02;8.32;;;;;;;18.00;75.53;98708.63;5014697;28;103346;-71
2022/05/11 00:35:22;;;;;;;7.93;7.32;;;;;;;18.37;73.88;98702.97;5015904;28;102694;-71
2022/05/11 00:37:51;;;;;;;7.32;6.82;;;;;;;18.65;72.47;98707.16;5016351;28;103987;-72
2022/05/11 00:40:21;;;;;;;8.73;8.13;;;;;;;18.46;73.09;98702.03;5017663;28;103900;-71
2022/05/11 00:42:49;;;;;;;8.35;7.75;;;;;;;18.57;72.10;98698.25;5016054;28;103246;-73
2022/05/11 00:45:17;;;;;;;7.68;7.07;;;;;;;18.67;71.15;98705.16;5018293;27;102734;-71
2022/05/11 00:47:49;;;;;;;7.70;7.20;;;;;;;18.63;71.77;98701.13;5017253;27;104187;-71
2022/05/11 00:50:20;;;;;;;10.13;9.15;;;;;;;18.17;73.22;98696.19;5016645;28;104016;-71
2022/05/11 00:52:53;;;;;;;9.98;9.07;;;;;;;17.38;76.77;98704.25;5009728;28;104262;-71
2022/05/11 00:55:25;;;;;;;6.57;6.18;;;;;;;18.06;74.92;98699.97;5018331;28;102775;-71
2022/05/11 00:57:58;;;;;;;7.47;6.97;;;;;;;18.31;73.38;98692.91;5016463;28;102658;-71
2022/05/11 01:00:27;;;;;;;8.40;7.80;;;;;;;18.34;72.62;98684.56;5016969;27;104009;-71
2022/05/11 01:02:58;;;;;;;8.15;7.55;;;;;;;18.31;72.68;98682.22;5006951;28;103375;-71
2022/05/11 01:05:27;;;;;;;8.10;7.53;;;;;;;18.22;73.26;98688.53;5015225;28;102955;-71
2022/05/11 01:07:58;;;;;;;11.10;10.20;;;;;;;17.44;75.79;98687.63;5017226;27;103470;-71
2022/05/11 01:10:27;;;;;;;9.88;9.18;;;;;;;17.34;77.74;98687.72;5014105;28;103826;-71
2022/05/11 01:12:58;;;;;;;10.15;9.40;;;;;;;17.32;77.52;98688.84;5017305;27;103200;-71
2022/05/11 01:15:31;;;;;;;9.57;8.88;;;;;;;17.59;75.95;98690.63;5015873;28;102644;-71
2022/05/11 01:18:00;;;;;;;8.50;7.90;;;;;;;17.36;77.86;98692.91;5015815;28;103181;-71
2022/05/11 01:20:33;;;;;;;9.45;8.75;;;;;;;17.64;75.35;98693.66;5016638;27;103436;-71
2022/05/11 01:23:07;;;;;;;8.35;7.82;;;;;;;17.77;75.38;98691.41;5015283;28;104086;-71
2022/05/11 01:25:36;;;;;;;8.18;7.57;;;;;;;17.86;74.07;98694.00;5031372;27;102651;-71
2022/05/11 01:28:09;;;;;;;8.60;7.90;;;;;;;17.91;73.55;98691.69;5017561;27;104049;-71
2022/05/11 01:30:39;;;;;;;8.57;7.97;;;;;;;17.89;73.61;98699.03;5014474;28;102674;-71
2022/05/11 01:33:08;;;;;;;9.77;8.97;;;;;;;17.53;75.26;98694.72;5016442;28;103233;-71
2022/05/11 01:35:50;;;;;;;9.20;8.60;;;;;;;17.21;77.25;98691.75;5011564;28;102706;-71
2022/05/11 01:38:40;;;;;;;11.30;10.50;;;;;;;16.66;79.03;98689.19;5017700;28;102638;-71
2022/05/11 01:41:12;;;;;;;11.63;10.73;;;;;;;16.35;81.06;98693.09;5013387;28;104321;-71
2022/05/11 01:43:41;;;;;;;11.73;10.93;;;;;;;16.17;82.56;98697.50;5015090;28;103183;-71
2022/05/11 01:46:10;;;;;;;9.85;9.05;;;;;;;16.60;80.98;98691.59;5016245;28;102629;-71
2022/05/11 01:48:38;;;;;;;8.38;7.78;;;;;;;17.01;78.81;98684.91;5015587;28;103857;-71
2022/05/11 01:51:06;;;;;;;8.80;8.20;;;;;;;17.26;77.18;98684.16;5016411;27;103725;-71
2022/05/11 01:53:34;;;;;;;7.90;7.30;;;;;;;17.44;75.39;98682.28;5014725;28;103206;-71
2022/05/11 01:56:03;;;;;;;8.13;7.53;;;;;;;17.47;75.44;98687.31;5017276;27;103048;-71
2022/05/11 01:58:33;;;;;;;7.80;7.20;;;;;;;17.58;73.99;98689.78;5014662;28;103905;-71
2022/05/11 02:01:01;;;;;;;8.05;7.55;;;;;;;17.56;74.68;98686.44;5009304;27;103261;-71
2022/05/11 02:03:29;;;;;;;7.45;6.88;;;;;;;17.56;73.63;98677.56;5010966;28;103579;-71
2022/05/11 02:08:45;;;;;;;10.57;9.77;;;;;;;17.02;76.92;98686.56;5015385;28;103788;-71
2022/05/11 02:11:14;;;;;;;9.45;8.75;;;;;;;17.07;76.06;98678.94;5015553;28;103879;-71
2022/05/11 02:13:45;;;;;;;9.40;8.60;;;;;;;17.15;76.90;98687.03;5016681;27;103224;-71
2022/05/11 02:16:13;;;;;;;9.07;8.35;;;;;;;17.24;75.58;98681.63;5014380;28;102592;-71
2022/05/11 02:18:42;;;;;;;10.37;9.60;;;;;;;17.17;76.20;98677.88;5014597;28;104522;-71
2022/05/11 02:21:10;;;;;;;9.50;8.80;;;;;;;17.21;76.40;98683.75;5015125;27;104156;-71
2022/05/11 02:23:39;;;;;;;11.45;10.55;;;;;;;16.91;77.93;98681.44;5016933;28;102689;-71
2022/05/11 02:26:10;;;;;;;7.32;6.82;;;;;;;17.13;77.03;98671.16;5015245;28;102641;-71
2022/05/11 02:28:40;;;;;;;10.48;9.77;;;;;;;16.89;78.35;98678.94;5016794;28;103839;-71
2022/05/11 02:31:10;;;;;;;9.50;8.80;;;;;;;17.04;77.51;98680.06;5015200;27;103258;-71
2022/05/11 02:33:38;;;;;;;11.07;10.18;;;;;;;16.80;78.52;98682.50;5013652;28;103734;-71
2022/05/11 02:36:06;;;;;;;8.55;7.95;;;;;;;17.02;77.39;98684.75;5009059;28;102834;-71
2022/05/11 02:38:34;;;;;;;8.00;7.30;;;;;;;17.19;76.02;98677.72;5016330;27;103635;-71
2022/05/11 02:41:04;;;;;;;8.40;7.70;;;;;;;17.19;76.11;98677.72;5016239;28;103038;-71
2022/05/11 02:43:32;;;;;;;11.82;10.93;;;;;;;16.65;78.56;98684.84;5013869;27;103150;-71
2022/05/11 02:46:00;;;;;;;11.87;10.97;;;;;;;16.58;79.32;98678.44;5015553;28;103605;-72
2022/05/11 02:48:33;;;;;;;11.35;10.45;;;;;;;16.62;80.16;98679.78;5015539;28;103815;-71
2022/05/11 02:51:03;;;;;;;11.43;10.63;;;;;;;16.58;80.15;98673.09;5016159;28;104019;-71
2022/05/11 02:53:32;;;;;;;14.00;12.90;;;;;;;16.18;81.96;98669.88;5014154;27;103303;-71
2022/05/11 02:56:03;;;;;;;14.70;13.60;;;;;;;15.75;85.29;98677.59;5017625;27;102947;-71
2022/05/11 02:58:33;;;;;;;15.10;13.90;;;;;;;15.70;85.68;98671.84;5018208;28;104156;-71
2022/05/11 03:01:03;;;;;;;16.10;14.80;;;;;;;15.74;85.38;98673.25;5017258;27;103958;-72
2022/05/11 03:03:34;;;;;;;10.57;9.77;;;;;;;16.41;82.80;98671.19;5016475;28;103327;-71
2022/05/11 03:06:05;;;;;;;10.75;9.85;;;;;;;16.68;80.87;98678.34;5018954;27;102626;-71
2022/05/11 03:08:34;;;;;;;11.33;10.43;;;;;;;16.72;80.00;98674.41;5018501;27;103675;-72
2022/05/11 03:11:01;;;;;;;11.55;10.65;;;;;;;16.75;79.37;98677.63;5017476;28;103354;-71
2022/05/11 03:13:30;;;;;;;11.32;10.40;;;;;;;16.78;79.12;98668.47;5015874;28;103236;-71
2022/05/11 03:15:58;;;;;;;11.15;10.30;;;;;;;16.86;78.82;98670.38;5016830;28;102807;-71
2022/05/11 03:18:26;;;;;;;10.02;9.23;;;;;;;16.89;77.50;98670.09;5015373;28;103693;-71
2022/05/11 03:20:57;;;;;;;13.03;12.03;;;;;;;16.73;79.04;98676.91;5016010;27;104129;-71
2022/05/11 03:23:25;;;;;;;12.45;11.55;;;;;;;16.68;79.89;98676.53;5018226;28;103287;-71
2022/05/11 03:25:53;;;;;;;10.38;9.57;;;;;;;16.84;78.40;98672.38;5017555;28;103243;-72
2022/05/11 03:28:21;;;;;;;8.40;7.80;;;;;;;16.94;77.32;98673.13;5016719;28;103954;-71
2022/05/11 03:30:49;;;;;;;13.35;12.35;;;;;;;16.63;79.52;98673.47;5015876;28;104249;-71
2022/05/11 03:36:05;;;;;;;11.88;10.98;;;;;;;16.84;77.71;98664.38;5016507;27;103258;-71
2022/05/11 03:38:33;;;;;;;10.30;9.50;;;;;;;16.60;79.51;98663.13;5017444;28;103998;-71
2022/05/11 03:41:03;;;;;;;11.73;10.73;;;;;;;16.70;78.81;98658.53;5016634;28;104080;-71
2022/05/11 03:43:31;;;;;;;16.55;15.25;;;;;;;15.74;83.45;98659.94;5016249;28;103173;-70
2022/05/11 03:45:59;;;;;;;12.85;11.85;;;;;;;15.99;83.75;98659.31;5014801;28;102639;-69
2022/05/11 03:48:29;;;;;;;11.98;11.07;;;;;;;16.41;81.77;98663.19;5010803;28;104002;-72
2022/05/11 03:50:58;;;;;;;14.00;12.70;;;;;;;16.39;79.95;98667.00;5011671;28;104149;-72
2022/05/11 03:53:28;;;;;;;10.43;9.68;;;;;;;16.58;79.64;98667.75;5016723;28;102736;-72
2022/05/11 03:55:55;;;;;;;12.73;11.82;;;;;;;16.47;79.33;98659.94;5013591;27;102623;-72
2022/05/11 03:58:23;;;;;;;13.13;12.10;;;;;;;16.20;81.47;98657.25;5012372;28;104101;-73
2022/05/11 04:00:54;;;;;;;14.27;13.05;;;;;;;15.95;82.99;98664.06;5013103;28;104226;-72
2022/05/11 04:03:22;;;;;;;16.08;14.77;;;;;;;15.24;86.39;98661.94;5015521;27;103193;-72
2022/05/11 04:05:50;;;;;;;15.75;14.43;;;;;;;15.09;88.77;98669.50;5013670;28;102593;-72
2022/05/11 04:08:17;;;;;;;16.17;14.98;;;;;;;15.28;87.55;98661.50;5013926;28;103213;-72
2022/05/11 04:10:47;;;;;;;15.53;14.23;;;;;;;14.81;89.81;98670.31;5012265;28;104247;-72
2022/05/11 04:13:15;;;;;;;16.40;15.00;;;;;;;14.83;90.31;98660.38;5014796;28;103447;-72
2022/05/11 04:15:42;;;;;;;14.48;13.35;;;;;;;15.12;89.95;98663.06;5016497;27;102598;-72
2022/05/11 04:18:10;;;;;;;14.75;13.57;;;;;;;15.01;89.85;98664.03;5014153;28;102650;-72
2022/05/11 04:20:38;;;;;;;12.45;11.45;;;;;;;15.41;88.42;98667.38;5015652;27;103259;-71
2022/05/11 04:23:06;;;;;;;13.60;12.50;;;;;;;15.54;86.57;98659.97;5011829;28;103988;-72
2022/05/11 04:25:34;;;;;;;13.35;12.25;;;;;;;15.37;87.20;98668.66;5030465;27;102738;-72
2022/05/11 04:28:08;;;;;;;12.88;11.82;;;;;;;15.41;88.05;98669.22;5018263;28;103875;-73
2022/05/11 04:30:35;;;;;;;13.70;12.52;;;;;;;15.39;87.23;98672.00;5018801;27;103360;-72
2022/05/11 04:33:04;;;;;;;12.70;11.60;;;;;;;15.54;86.83;98654.66;5020155;28;103201;-72
2022/05/11 04:35:31;;;;;;;11.75;10.80;;;;;;;15.69;86.13;98668.34;5001922;28;102727;-71
2022/05/11 04:38:00;;;;;;;9.98;9.23;;;;;;;15.86;85.43;98658.78;5012046;28;102615;-71
2022/05/11 04:40:32;;;;;;;9.73;9.02;;;;;;;16.17;83.55;98662.88;5014510;28;103948;-72
2022/05/11 04:43:08;;;;;;;10.63;9.82;;;;;;;16.37;82.78;98664.47;5015656;27;104106;-72
2022/05/11 04:45:38;;;;;;;10.40;9.60;;;;;;;16.48;82.09;98663.41;5022784;28;102580;-72
2022/05/11 04:48:06;;;;;;;8.80;8.10;;;;;;;16.66;80.67;98670.50;5024835;28;104118;-72
2022/05/11 04:50:36;;;;;;;9.52;8.73;;;;;;;16.64;80.81;98671.66;5018190;28;104114;-72
2022/05/11 04:53:04;;;;;;;9.35;8.73;;;;;;;16.48;82.06;98672.25;5021384;27;103246;-72
2022/05/11 04:55:35;;;;;;;8.83;8.13;;;;;;;16.57;81.23;98671.41;5021915;28;102941;-72
2022/05/11 04:58:04;;;;;;;9.10;8.40;;;;;;;16.63;82.14;98676.16;5023837;28;102802;-72
2022/05/11 05:00:34;;;;;;;8.50;7.88;;;;;;;16.77;80.98;98670.31;5019970;28;103525;-72
2022/05/11 05:03:09;;;;;;;9.60;8.90;;;;;;;16.64;81.60;98671.66;5022783;28;103165;-73
2022/05/11 05:05:37;;;;;;;8.30;7.70;;;;;;;16.77;81.25;98667.63;5023956;27;102670;-72
2022/05/11 05:08:06;;;;;;;8.03;7.43;;;;;;;17.06;78.93;98671.94;5021373;28;104294;-67
2022/05/11 05:10:34;;;;;;;7.03;6.53;;;;;;;17.28;77.89;98672.31;5014772;28;104099;-67
2022/05/11 05:13:06;;;;;;;7.43;6.80;;;;;;;17.39;77.32;98672.06;5005151;28;103181;-67
2022/05/11 05:15:37;;;;;;;6.72;6.22;;;;;;;17.54;76.63;98677.75;5011775;28;102682;-67
2022/05/11 05:18:06;;;;;;;7.57;6.97;;;;;;;17.71;75.63;98673.34;5011965;28;104167;-66
2022/05/11 05:20:35;;;;;;;9.13;8.32;;;;;;;17.64;75.89;98678.47;5011426;27;104108;-68
2022/05/11 05:23:03;;;;;;;8.73;8.00;;;;;;;17.79;75.43;98679.59;5015104;27;103891;-67
2022/05/11 05:25:33;;;;;;;7.82;7.22;;;;;;;17.99;74.75;98682.06;5008409;27;103109;-67
2022/05/11 05:31:06;;;;;;;7.70;7.15;;;;;;;18.25;73.61;98680.19;5014193;27;104382;-67
2022/05/11 05:33:35;;;;;;;7.70;7.10;;;;;;;18.45;73.01;98674.44;5003390;28;114961;-67
2022/05/11 05:36:04;;;;;;;8.40;7.70;;;;;;;18.51;72.74;98678.34;5008300;27;102673;-67
2022/05/11 05:38:38;;;;;;;8.27;7.57;;;;;;;18.65;72.82;98672.38;5013484;27;103821;-67
2022/05/11 05:41:06;;;;;;;7.53;6.93;;;;;;;18.67;72.21;98683.75;5015606;27;103892;-67
2022/05/11 05:43:37;;;;;;;8.03;7.33;;;;;;;18.75;71.79;98681.09;5015500;27;103510;-67
2022/05/11 05:46:07;;;;;;;7.18;6.55;;;;;;;18.98;70.32;98682.16;4997831;28;102719;-66
2022/05/11 05:48:35;;;;;;;7.15;6.55;;;;;;;18.93;70.44;98678.31;5017704;27;103887;-72
2022/05/11 05:51:05;;;;;;;7.53;6.90;;;;;;;19.09;70.11;98681.84;5007540;28;104113;-71
2022/05/11 05:53:33;;;;;;;7.20;6.50;;;;;;;19.15;69.51;98676.84;5020050;27;103253;-72
2022/05/11 05:56:02;;;;;;;6.18;5.63;;;;;;;19.38;67.99;98677.88;5015714;27;102708;-72
2022/05/11 05:58:30;;;;;;;6.45;5.95;;;;;;;19.54;68.41;98678.75;5021300;27;103709;-72
2022/05/11 06:00:57;;;;;;;6.30;5.80;;;;;;;19.49;67.58;98680.25;5019855;28;103265;-72
2022/05/11 06:03:29;;;;;;;5.70;5.30;;;;;;;19.68;66.56;98674.53;5022254;27;103257;-71
2022/05/11 06:06:04;;;;;;;6.90;5.75;;;;;;;19.79;66.11;98671.50;5022841;27;102618;-73
2022/05/11 06:08:32;;;;;;;5.75;5.25;;;;;;;20.04;65.67;98681.19;5020694;27;103941;-73
2022/05/11 06:11:00;;;;;;;6.53;5.83;;;;;;;20.01;65.92;98678.88;5015898;28;104032;-71
2022/05/11 06:13:27;;;;;;;5.80;5.30;;;;;;;20.24;64.69;98673.59;5013963;28;103183;-71
2022/05/11 06:15:58;;;;;;;7.18;6.47;;;;;;;20.16;65.22;98678.97;5020342;27;102697;-72
2022/05/11 06:18:27;;;;;;;6.55;6.00;;;;;;;20.45;64.73;98683.78;5005437;28;104046;-72
2022/05/11 06:20:56;;;;;;;6.27;5.67;;;;;;;20.57;64.45;98679.72;5021005;28;104049;-72
2022/05/11 06:23:26;;;;;;;7.50;6.22;;;;;;;20.51;64.52;98681.25;5018735;28;103314;-72
2022/05/11 06:25:54;;;;;;;6.50;5.90;;;;;;;20.62;64.30;98682.72;5019832;27;102706;-72
2022/05/11 06:28:22;;;;;;;6.27;5.73;;;;;;;20.85;64.03;98683.63;5021426;27;104359;-72
2022/05/11 06:31:11;;;;;;;5.70;5.20;;;;;;;21.12;63.48;98677.78;5019264;28;103837;-72
2022/05/11 06:33:46;;;;;;;7.13;5.82;;;;;;;21.09;63.33;98682.66;5014230;28;103357;-72
2022/05/11 06:36:15;;;;;;;6.18;5.68;;;;;;;21.05;62.82;98679.44;5020313;28;102550;-72
2022/05/11 06:38:43;;;;;;;6.38;5.60;;;;;;;21.16;62.56;98680.94;5021090;27;103012;-72
2022/05/11 06:41:13;;;;;;;7.07;5.93;;;;;;;21.05;63.01;98676.75;5020163;28;103452;-72
2022/05/11 06:43:41;;;;;;;5.97;5.43;;;;;;;21.43;63.05;98680.41;5012123;28;102665;-72
2022/05/11 06:46:09;;;;;;;5.72;5.15;;;;;;;21.55;61.95;98673.59;5019711;27;102868;-73
2022/05/11 06:48:37;;;;;;;6.13;5.57;;;;;;;21.76;62.08;98670.22;5027132;27;102631;-73
2022/05/11 06:51:06;;;;;;;6.20;5.28;;;;;;;21.72;61.03;98671.59;5028527;27;103941;-73
2022/05/11 06:59:20;;;;;;;6.15;5.00;;;;;;;21.76;60.06;98660.28;5020877;27;103176;-73
2022/05/11 06:59:24;;;;;;;4.78;3.90;;;;;;;21.99;56.86;98659.44;4999772;28;104434;-68
2022/05/11 07:01:54;;;;;;;4.87;4.27;;;;;;;22.27;58.03;98661.31;5014979;27;104094;-68
2022/05/11 07:04:23;;;;;;;5.63;3.80;;;;;;;22.25;56.33;98655.28;5012379;27;103162;-68
2022/05/11 07:06:53;;;;;;;4.55;4.15;;;;;;;22.50;55.47;98656.66;5009849;27;102804;-68
2022/05/11 07:09:26;;;;;;;3.85;3.55;;;;;;;22.77;54.95;98651.63;5014989;27;104220;-68
2022/05/11 07:14:40;;;;;;;4.30;3.60;;;;;;;23.26;53.72;98652.59;5013133;28;103009;-68
2022/05/11 07:17:08;;;;;;;3.90;3.60;;;;;;;23.28;52.30;98658.63;5014653;27;102998;-68
2022/05/11 07:19:41;;;;;;;4.32;3.30;;;;;;;23.50;51.71;98651.38;5001924;28;103642;-68
2022/05/11 07:22:10;;;;;;;4.30;3.60;;;;;;;23.70;51.93;98651.56;4999908;28;104429;-68
2022/05/11 07:24:38;;;;;;;5.40;3.55;;;;;;;23.90;51.23;98645.31;5014402;27;103385;-68
2022/05/11 07:27:06;;;;;;;3.83;3.40;;;;;;;24.14;50.58;98649.44;5014673;28;103057;-68
2022/05/11 07:29:34;;;;;;;3.95;3.65;;;;;;;24.30;50.91;98638.31;5013715;27;102772;-68
2022/05/11 07:32:02;;;;;;;4.80;3.30;;;;;;;24.43;49.27;98642.94;5014334;27;104608;-68
2022/05/11 07:34:30;;;;;;;4.82;3.47;;;;;;;24.70;48.64;98640.16;4994964;28;104170;-68
2022/05/11 07:36:58;;;;;;;3.03;2.75;;;;;;;25.19;47.95;98641.81;5007584;27;102983;-68
2022/05/11 07:39:27;;;;;;;5.70;3.63;;;;;;;25.56;47.52;98638.56;4995717;28;104153;-68
2022/05/11 07:41:56;;;;;;;3.50;3.20;;;;;;;25.73;46.40;98631.69;5010182;28;104105;-69
2022/05/11 07:44:24;;;;;;;5.88;3.30;;;;;;;25.85;45.88;98630.00;4994819;28;104155;-68
2022/05/11 07:46:51;;;;;;;5.30;3.15;;;;;;;25.88;45.88;98634.19;5010414;27;102779;-68
2022/05/11 07:49:20;;;;;;;7.05;3.40;;;;;;;26.31;44.78;98629.97;5013644;27;103062;-68
2022/05/11 07:51:49;;;;;;;3.70;3.13;;;;;;;26.42;43.59;98631.19;5011304;27;104125;-68
2022/05/11 07:54:18;;;;;;;4.20;3.00;;;;;;;26.71;43.45;98625.25;4992845;28;103094;-68
2022/05/11 08:02:19;;;;;;;2.87;2.63;;;;;;;27.46;41.52;98623.59;5007905;28;103325;-68
2022/05/11 08:04:47;;;;;;;3.20;2.90;;;;;;;27.00;41.88;98624.69;5011813;28;103772;-68
2022/05/11 08:07:15;;;;;;;4.70;2.70;;;;;;;27.10;41.25;98616.09;5013855;27;102647;-68
2022/05/11 08:09:42;;;;;;;4.07;2.70;;;;;;;27.32;40.66;98613.84;5013814;28;104053;-69
2022/05/11 08:12:12;;;;;;;4.65;2.80;;;;;;;28.08;40.73;98615.34;5013831;28;103238;-69
2022/05/11 08:14:42;;;;;;;4.00;2.58;;;;;;;28.15;40.64;98612.59;5011331;27;103216;-68
2022/05/11 08:17:10;;;;;;;3.35;2.70;;;;;;;28.22;39.83;98617.91;5014230;28;102594;-69
2022/05/11 08:19:38;;;;;;;3.30;3.03;;;;;;;27.89;39.76;98618.22;5011793;27;102838;-69
2022/05/11 08:22:06;;;;;;;3.03;2.67;;;;;;;28.36;39.95;98608.56;5013454;28;103329;-68
2022/05/11 08:24:34;;;;;;;3.25;2.90;;;;;;;28.70;38.97;98610.69;5014670;28;103216;-68
2022/05/11 08:27:09;;;;;;;4.40;3.00;;;;;;;29.43;39.82;98605.91;5015760;27;103250;-69
2022/05/11 08:35:19;;;;;;;4.93;2.70;;;;;;;29.96;37.33;98605.88;5014455;28;103179;-68
2022/05/11 08:37:48;;;;;;;3.50;3.20;;;;;;;29.27;36.95;98604.72;5019590;27;103058;-68
2022/05/11 08:40:23;;;;;;;3.65;3.00;;;;;;;29.70;37.60;98603.59;5013104;27;103163;-68
2022/05/11 08:42:51;;;;;;;3.75;2.78;;;;;;;29.80;37.43;98595.69;5014085;27;103182;-69
2022/05/11 08:45:20;;;;;;;3.22;2.70;;;;;;;29.93;36.22;98594.63;5014629;27;103471;-68
2022/05/11 08:47:48;;;;;;;5.28;2.70;;;;;;;30.01;36.94;98591.56;4996131;28;103255;-68
2022/05/11 08:50:19;;;;;;;3.30;2.60;;;;;;;30.19;36.46;98600.41;4997574;28;104081;-68
2022/05/11 08:52:52;;;;;;;3.72;2.38;;;;;;;30.47;36.68;98587.97;5014421;28;104082;-68
2022/05/11 08:55:35;;;;;;;3.95;2.65;;;;;;;30.05;36.04;98595.44;5016588;28;104116;-69
2022/05/11 08:58:11;;;;;;;4.93;2.60;;;;;;;30.93;35.20;98585.13;5000148;28;102986;-69
2022/05/11 09:00:44;;;;;;;4.20;2.70;;;;;;;31.71;35.48;98592.50;5018970;27;103943;-69
2022/05/11 09:03:26;;;;;;;3.05;2.75;;;;;;;30.44;35.57;98581.94;5011634;28;103260;-69
2022/05/11 09:05:56;;;;;;;4.90;3.20;;;;;;;30.58;35.94;98587.09;5014869;27;103311;-69
2022/05/11 09:08:24;;;;;;;3.92;3.10;;;;;;;30.76;36.08;98578.75;5000042;28;104659;-69
2022/05/11 09:10:52;;;;;;;3.40;2.60;;;;;;;30.91;35.14;98570.84;5002692;28;103780;-69
2022/05/11 09:13:22;;;;;;;3.20;2.90;;;;;;;30.01;36.62;98580.69;5010808;28;104773;-72
2022/05/11 09:16:00;;;;;;;3.30;3.10;;;;;;;30.92;36.16;98577.97;5014789;27;103262;-71
2022/05/11 09:18:39;;;;;;;3.17;2.97;;;;;;;30.82;35.96;98580.50;5016165;27;102797;-71
2022/05/11 09:21:19;;;;;;;3.67;2.92;;;;;;;31.12;34.92;98572.94;5016691;28;104017;-71
2022/05/11 09:24:00;;;;;;;3.75;2.80;;;;;;;31.08;35.55;98577.19;5016942;27;103310;-71
2022/05/11 09:26:33;;;;;;;4.00;3.00;;;;;;;30.73;36.36;98580.06;4984493;28;103544;-72
2022/05/11 09:29:21;;;;;;;4.27;3.00;;;;;;;31.70;35.11;98574.47;5006011;27;103079;-72
2022/05/11 09:31:52;;;;;;;3.80;3.25;;;;;;;31.10;35.16;98580.53;5022210;27;103764;-71
2022/05/11 09:34:27;;;;;;;3.43;3.20;;;;;;;31.28;35.10;98566.66;5024016;27;103257;-71
2022/05/11 09:36:59;;;;;;;4.35;3.13;;;;;;;32.09;35.48;98568.81;5022437;27;103163;-70
2022/05/11 09:39:29;;;;;;;3.70;3.30;;;;;;;31.65;36.04;98563.47;5022547;27;102803;-70
2022/05/11 09:42:11;;;;;;;5.60;3.60;;;;;;;31.62;35.87;98566.69;5024875;27;104495;-70
2022/05/11 09:44:43;;;;;;;4.63;3.20;;;;;;;31.93;35.27;98568.81;5023482;27;104051;-69
2022/05/11 09:47:28;;;;;;;4.03;3.42;;;;;;;31.44;36.77;98570.50;5020549;27;103328;-70
2022/05/11 09:50:13;;;;;;;4.03;3.47;;;;;;;31.32;34.61;98556.91;5012654;27;103027;-70
2022/05/11 09:52:41;;;;;;;5.07;3.40;;;;;;;30.91;35.18;98559.94;5017885;27;104804;-70
2022/05/11 09:55:17;;;;;;;3.90;3.33;;;;;;;31.41;36.73;98555.41;5022579;27;103669;-69
2022/05/11 09:57:57;;;;;;;5.00;3.50;;;;;;;31.11;36.54;98554.88;5031379;27;103194;-69
2022/05/11 10:00:33;;;;;;;5.27;3.87;;;;;;;31.32;35.37;98550.63;5027395;27;102587;-70
2022/05/11 10:03:06;;;;;;;3.90;3.60;;;;;;;31.71;36.02;98549.66;5029757;27;102778;-70
2022/05/11 10:05:39;;;;;;;5.70;3.60;;;;;;;31.13;36.01;98544.56;5029908;27;103020;-69
2022/05/11 10:08:18;;;;;;;5.30;3.60;;;;;;;31.35;37.42;98545.50;5027155;27;103209;-70
2022/05/11 10:10:51;;;;;;;4.07;3.78;;;;;;;31.58;36.46;98540.97;5025577;27;102910;-70
2022/05/11 10:13:26;;;;;;;3.80;3.50;;;;;;;31.13;36.33;98528.19;5027222;27;103053;-70
2022/05/11 10:21:53;;;;;;;4.13;3.72;;;;;;;31.02;36.61;98520.91;5032579;27;102945;-69
2022/05/11 10:24:45;;;;;;;4.07;3.58;;;;;;;31.23;35.87;98522.91;5022749;27;104198;-69
2022/05/11 10:27:21;;;;;;;4.82;3.83;;;;;;;31.42;35.27;98518.84;5037657;27;104927;-70
2022/05/11 10:30:04;;;;;;;3.92;3.55;;;;;;;31.29;36.66;98505.56;5018942;27;103192;-69
2022/05/11 10:32:43;;;;;;;4.17;3.87;;;;;;;31.15;36.30;98514.31;5016336;27;102890;-69
2022/05/11 10:35:16;;;;;;;4.03;3.72;;;;;;;29.97;37.55;98504.06;5013077;27;104112;-69
2022/05/11 10:38:02;;;;;;;5.00;4.00;;;;;;;30.44;36.52;98505.63;5019046;27;103721;-68
2022/05/11 10:40:37;;;;;;;4.88;3.95;;;;;;;30.80;36.09;98496.22;5037134;27;103372;-68
2022/05/11 10:43:22;;;;;;;3.88;3.47;;;;;;;31.41;35.70;98489.09;5037223;27;102717;-69
2022/05/11 10:46:14;;;;;;;4.60;3.50;;;;;;;30.99;34.77;98486.75;5035467;27;102724;-68
2022/05/11 10:48:59;;;;;;;5.35;3.58;;;;;;;30.30;36.38;98487.88;5017837;27;104440;-70
2022/05/11 10:51:41;;;;;;;4.37;3.23;;;;;;;30.52;36.24;98482.59;5037290;27;103121;-71
2022/05/11 10:54:16;;;;;;;4.03;3.20;;;;;;;31.36;35.30;98469.91;5036999;27;102755;-69
2022/05/11 10:56:53;;;;;;;3.67;3.03;;;;;;;31.00;34.80;98484.88;5018486;27;103569;-69
2022/05/11 10:59:52;;;;;;;3.80;3.20;;;;;;;31.54;34.77;98473.22;5037755;27;104133;-70
2022/05/11 11:02:57;;;;;;;5.47;3.13;;;;;;;31.18;33.81;98462.81;5035299;27;105275;-70
2022/05/11 11:05:30;;;;;;;3.72;3.33;;;;;;;31.41;33.89;98468.06;5018465;27;102928;-70
2022/05/11 11:08:10;;;;;;;5.53;3.45;;;;;;;31.26;33.85;98454.22;5040580;27;104102;-70
2022/05/11 11:10:46;;;;;;;3.72;3.28;;;;;;;31.09;34.70;98460.72;5039394;27;104565;-70
2022/05/11 11:13:34;;;;;;;4.25;3.25;;;;;;;31.79;33.78;98458.28;5039320;27;102971;-70
2022/05/11 11:16:04;;;;;;;6.35;3.00;;;;;;;31.79;32.61;98453.66;5039259;27;102563;-70
2022/05/11 11:18:34;;;;;;;3.20;2.90;;;;;;;31.69;33.33;98447.22;5037829;27;102638;-70
2022/05/11 11:21:03;;;;;;;3.73;3.10;;;;;;;31.58;33.26;98448.16;5017367;27;104481;-71
2022/05/11 11:23:35;;;;;;;3.70;3.00;;;;;;;31.50;33.52;98442.03;5040998;27;103301;-70
2022/05/11 11:26:06;;;;;;;6.20;3.13;;;;;;;31.73;33.30;98441.00;5039286;27;102737;-70
2022/05/11 11:29:18;;;;;;;4.07;3.03;;;;;;;31.32;33.52;98430.56;5041964;27;104080;-70
2022/05/11 11:32:08;;;;;;;3.13;2.83;;;;;;;31.51;33.26;98434.69;5038628;27;103294;-70
2022/05/11 11:34:38;;;;;;;5.13;3.15;;;;;;;31.62;34.00;98438.38;5038913;27;103423;-69
2022/05/11 11:37:39;;;;;;;5.40;3.43;;;;;;;32.35;32.19;98427.84;5038598;27;102792;-69
2022/05/11 11:40:28;;;;;;;3.23;3.03;;;;;;;32.20;32.30;98437.81;5025447;27;103067;-69
2022/05/11 11:42:57;;;;;;;3.47;3.13;;;;;;;31.93;31.97;98426.78;5037082;27;103363;-69
2022/05/11 11:46:10;;;;;;;4.43;3.00;;;;;;;31.93;32.36;98424.88;4993917;27;104282;-71
2022/05/11 11:48:41;;;;;;;3.15;2.90;;;;;;;31.64;31.79;98417.13;5030774;27;102899;-70
2022/05/11 11:51:14;;;;;;;3.53;2.58;;;;;;;32.20;30.55;98419.47;5016341;27;102907;-70
2022/05/11 11:53:57;;;;;;;4.05;2.97;;;;;;;31.90;31.15;98416.34;5017464;27;104294;-70
2022/05/11 11:56:46;;;;;;;4.43;3.10;;;;;;;31.44;31.00;98410.25;5036754;27;103214;-69
2022/05/11 11:59:34;;;;;;;4.77;3.00;;;;;;;32.14;30.84;98412.34;5036602;27;102749;-72
2022/05/11 12:02:13;;;;;;;3.25;2.67;;;;;;;32.61;30.18;98393.44;5013764;27;103873;-71
2022/05/11 12:04:43;;;;;;;4.35;2.95;;;;;;;32.02;30.73;98408.91;5011139;28;104043;-69
2022/05/11 12:15:41;;;;;;;3.70;2.92;;;;;;;32.72;29.43;98373.28;5013817;28;104077;-69
2022/05/11 12:18:24;;;;;;;3.60;2.92;;;;;;;31.98;30.46;98380.41;4990968;28;104204;-70
2022/05/11 12:20:53;;;;;;;4.10;2.78;;;;;;;31.97;31.30;98389.69;5011055;27;102950;-70
2022/05/11 12:23:24;;;;;;;4.10;2.73;;;;;;;32.20;30.66;98381.22;5013374;28;102705;-69